Time;durP1;ratioP1;P1;durP2;ratioP2;P2;SDS_P1;SDS_P2;PMS_P1;PMS_P2;Temp;Humidity;BMP_temperature;BMP_pressure;BME280_temperature;BME280_humidity;BME280_pressure;Samples;Min_cycle;Max_cycle;Signal;HPM_P1;HPM_P2
2022/10/01 00:00:05;;;;;;;7.32;3.60;;;15.50;80.30;;;;;;7386624;19;20031;-88
2022/10/01 00:02:38;;;;;;;8.95;3.70;;;15.50;80.20;;;;;;7391355;19;20018;-88
2022/10/01 00:05:10;;;;;;;8.60;3.60;;;15.60;80.30;;;;;;7389355;19;20022;-89
2022/10/01 00:07:52;;;;;;;7.00;3.17;;;15.50;81.00;;;;;;7390227;19;20070;-89
2022/10/01 00:10:22;;;;;;;5.15;3.10;;;15.50;80.80;;;;;;7390426;19;20103;-88
2022/10/01 00:12:51;;;;;;;5.80;3.20;;;15.50;80.80;;;;;;7415488;19;20026;-89
2022/10/01 00:15:27;;;;;;;8.30;3.47;;;15.60;80.80;;;;;;7394575;19;20046;-89
2022/10/01 00:17:57;;;;;;;7.78;3.35;;;15.60;80.70;;;;;;7395935;19;20278;-90
2022/10/01 00:20:26;;;;;;;7.00;3.47;;;15.80;80.60;;;;;;7395132;19;20615;-90
2022/10/01 00:22:56;;;;;;;6.40;3.20;;;15.60;81.00;;;;;;7396006;19;20014;-89
2022/10/01 00:25:26;;;;;;;7.38;3.33;;;15.50;81.00;;;;;;7395899;19;20018;-88
2022/10/01 00:27:55;;;;;;;5.10;2.92;;;15.20;82.30;;;;;;7418860;19;20017;-90
2022/10/01 00:30:27;;;;;;;6.40;3.03;;;15.50;82.20;;;;;;7398985;19;20011;-89
2022/10/01 00:32:56;;;;;;;;;;;15.70;81.70;;;;;;7396274;19;20042;-89
2022/10/01 00:35:25;;;;;;;6.57;3.13;;;15.90;81.10;;;;;;7391117;19;19930;-89
2022/10/01 00:37:54;;;;;;;7.45;3.20;;;15.60;80.70;;;;;;7388370;19;20021;-89
2022/10/01 00:40:24;;;;;;;7.35;2.83;;;15.50;81.70;;;;;;7386362;19;20014;-90
2022/10/01 00:42:53;;;;;;;8.35;2.95;;;15.70;81.70;;;;;;7409076;19;20039;-89
2022/10/01 00:45:22;;;;;;;4.57;3.05;;;15.60;81.60;;;;;;7386419;19;20014;-89
2022/10/01 00:47:57;;;;;;;5.35;2.83;;;15.70;81.10;;;;;;7384306;19;20010;-89
2022/10/01 00:50:32;;;;;;;4.70;2.80;;;15.80;81.30;;;;;;7388406;19;20021;-90
2022/10/01 00:53:05;;;;;;;5.40;2.42;;;15.60;81.50;;;;;;7389717;19;20078;-89
2022/10/01 00:55:38;;;;;;;4.60;2.20;;;15.60;81.90;;;;;;7384568;19;20014;-89
2022/10/01 00:58:20;;;;;;;9.65;2.90;;;15.40;82.70;;;;;;7388243;19;20021;-88
2022/10/01 01:00:51;;;;;;;5.00;2.53;;;15.50;82.30;;;;;;7411266;19;20052;-89
2022/10/01 01:03:23;;;;;;;4.90;2.75;;;15.70;81.90;;;;;;7391733;19;20039;-88
2022/10/01 01:05:53;;;;;;;6.53;2.55;;;15.80;81.60;;;;;;7388690;19;20006;-88
2022/10/01 01:08:23;;;;;;;6.78;2.67;;;15.80;81.30;;;;;;7386167;19;20046;-88
2022/10/01 01:11:27;;;;;;;6.13;2.83;;;15.70;81.80;;;;;;7386814;19;20015;-90
2022/10/01 01:14:20;;;;;;;4.60;2.50;;;15.30;82.90;;;;;;7385836;19;20455;-89
2022/10/01 01:17:00;;;;;;;4.28;2.53;;;15.10;84.10;;;;;;7394203;19;20018;-89
2022/10/01 01:19:53;;;;;;;5.65;2.53;;;15.20;84.20;;;;;;7402454;19;20016;-89
2022/10/01 01:22:27;;;;;;;4.70;2.95;;;15.30;83.80;;;;;;7404515;19;20014;-89
2022/10/01 01:25:01;;;;;;;7.53;2.90;;;15.50;83.50;;;;;;7415064;19;20054;-89
2022/10/01 01:27:40;;;;;;;8.30;2.50;;;15.40;83.80;;;;;;7403991;19;20090;-90
2022/10/01 01:30:14;;;;;;;4.10;2.33;;;15.30;84.30;;;;;;7385799;19;20034;-90
2022/10/01 01:32:48;;;;;;;3.70;2.13;;;15.20;85.10;;;;;;7379360;19;20019;-88
2022/10/01 01:35:25;;;;;;;5.00;2.45;;;15.30;85.00;;;;;;7380193;19;20032;-89
2022/10/01 01:38:01;;;;;;;4.68;2.15;;;15.40;84.80;;;;;;7386972;19;20014;-89
2022/10/01 01:40:33;;;;;;;6.07;2.20;;;15.60;84.40;;;;;;7386082;19;20096;-89
2022/10/01 01:43:04;;;;;;;4.72;2.03;;;15.40;85.00;;;;;;7389110;19;20014;-90
2022/10/01 01:45:39;;;;;;;3.47;2.10;;;15.30;85.30;;;;;;7402619;19;20018;-90
2022/10/01 01:48:11;;;;;;;4.03;2.00;;;15.30;85.50;;;;;;7382952;19;20321;-90
2022/10/01 01:50:49;;;;;;;3.83;1.88;;;15.10;86.40;;;;;;7384993;19;20019;-89
2022/10/01 01:53:18;;;;;;;8.68;2.13;;;15.20;86.90;;;;;;7382790;19;20032;-90
2022/10/01 01:55:48;;;;;;;2.38;1.65;;;15.20;87.00;;;;;;7387918;19;20018;-90
2022/10/01 01:58:18;;;;;;;3.13;2.03;;;15.30;86.60;;;;;;7385596;19;20008;-90
2022/10/01 02:00:53;;;;;;;2.58;1.98;;;15.60;85.70;;;;;;7410631;19;20014;-90
2022/10/01 02:03:25;;;;;;;4.43;2.17;;;15.70;85.20;;;;;;7408204;19;20011;-90
2022/10/01 02:06:02;;;;;;;3.17;1.60;;;15.70;84.90;;;;;;7411989;19;20007;-90
2022/10/01 02:08:41;;;;;;;2.28;1.60;;;15.60;85.00;;;;;;7413060;19;20124;-91
2022/10/01 02:11:29;;;;;;;3.40;1.70;;;15.60;84.80;;;;;;7409772;19;20030;-91
2022/10/01 02:14:06;;;;;;;3.30;1.58;;;15.60;85.10;;;;;;7398592;19;20017;-90
2022/10/01 02:16:50;;;;;;;2.33;1.52;;;15.60;85.10;;;;;;7396821;19;20026;-91
2022/10/01 02:19:27;;;;;;;5.80;1.90;;;15.60;85.20;;;;;;7391505;19;20430;-92
2022/10/01 02:22:02;;;;;;;4.05;1.70;;;15.80;84.90;;;;;;7414109;19;20395;-91
2022/10/01 02:24:40;;;;;;;7.30;2.10;;;15.90;85.20;;;;;;7411610;19;20034;-91
2022/10/01 02:27:21;;;;;;;3.90;1.90;;;16.00;84.10;;;;;;7391631;19;20027;-91
2022/10/01 02:30:03;;;;;;;3.28;2.25;;;16.00;83.90;;;;;;7387470;19;20038;-91
2022/10/01 02:33:02;;;;;;;2.88;1.60;;;16.10;83.70;;;;;;7392860;19;20066;-91
2022/10/01 02:35:45;;;;;;;3.78;1.60;;;16.10;83.40;;;;;;7389727;19;20018;-91
2022/10/01 02:38:26;;;;;;;3.20;1.48;;;15.90;84.60;;;;;;7388109;19;20021;-90
2022/10/01 02:40:59;;;;;;;2.92;1.60;;;16.00;84.40;;;;;;7385570;19;20015;-90
2022/10/01 02:43:34;;;;;;;4.25;1.63;;;16.00;84.00;;;;;;7384928;19;20018;-90
2022/10/01 02:46:29;;;;;;;1.50;1.40;;;16.00;85.20;;;;;;7386612;19;20023;-90
2022/10/01 02:59:45;;;;;;;4.90;1.50;;;16.20;84.10;;;;;;7339826;19;20019;-91
2022/10/01 03:05:20;;;;;;;5.37;1.80;;;16.20;84.40;;;;;;7387441;19;20015;-92
2022/10/01 03:07:57;;;;;;;3.67;1.23;;;16.30;84.10;;;;;;7383395;19;20022;-91
2022/10/01 03:10:33;;;;;;;1.65;1.13;;;16.20;84.70;;;;;;7385940;19;20615;-91
2022/10/01 03:13:08;;;;;;;5.13;1.13;;;16.10;85.00;;;;;;7384470;19;20066;-91
2022/10/01 03:15:43;;;;;;;1.23;1.10;;;16.20;85.00;;;;;;7406218;19;20070;-91
2022/10/01 03:18:13;;;;;;;3.70;1.30;;;16.10;84.90;;;;;;7384769;19;20022;-91
2022/10/01 03:21:23;;;;;;;1.40;1.00;;;16.10;85.20;;;;;;7387198;19;20007;-92
2022/10/01 03:24:10;;;;;;;3.67;1.27;;;15.90;85.90;;;;;;7389927;19;20019;-90
2022/10/01 03:26:50;;;;;;;3.10;1.20;;;16.10;85.70;;;;;;7389335;19;20010;-90
2022/10/01 03:29:30;;;;;;;1.02;1.02;;;16.10;85.80;;;;;;7384458;19;20007;-90
2022/10/01 03:32:09;;;;;;;1.92;1.20;;;16.10;85.80;;;;;;7383682;19;20329;-91
2022/10/01 03:34:43;;;;;;;3.40;1.10;;;16.00;86.10;;;;;;7399633;19;20002;-89
2022/10/01 03:37:12;;;;;;;2.78;1.10;;;15.90;86.70;;;;;;7395924;19;20014;-88
2022/10/01 03:39:44;;;;;;;1.23;1.10;;;15.90;87.00;;;;;;7404448;19;20031;-88
2022/10/01 03:42:14;;;;;;;1.38;1.27;;;16.10;86.80;;;;;;7383231;19;20324;-89
2022/10/01 03:44:43;;;;;;;2.22;0.95;;;15.80;87.50;;;;;;7389418;19;20019;-89
2022/10/01 03:47:14;;;;;;;1.50;1.20;;;15.80;87.80;;;;;;7403738;19;20007;-89
2022/10/01 03:49:43;;;;;;;3.72;1.15;;;16.00;87.40;;;;;;7395417;19;20010;-90
2022/10/01 03:52:16;;;;;;;1.08;0.98;;;16.20;86.70;;;;;;7395334;19;20022;-90
2022/10/01 03:54:51;;;;;;;;;;;16.00;87.30;;;;;;7409706;19;20067;-90
2022/10/01 03:57:33;;;;;;;3.55;1.58;;;16.10;87.90;;;;;;7388500;19;19959;-89
2022/10/01 04:00:24;;;;;;;2.22;1.00;;;16.10;88.00;;;;;;7391924;19;20082;-88
2022/10/01 04:03:10;;;;;;;1.85;0.98;;;16.20;87.60;;;;;;7389905;19;20017;-88
2022/10/01 04:05:41;;;;;;;1.58;0.60;;;16.30;87.20;;;;;;7347801;19;20631;-88
2022/10/01 04:08:22;;;;;;;2.13;0.60;;;16.10;87.50;;;;;;7383252;19;20019;-89
2022/10/01 04:11:13;;;;;;;0.60;0.60;;;16.20;87.80;;;;;;7382007;19;20006;-89
2022/10/01 04:13:56;;;;;;;1.13;0.75;;;16.40;87.60;;;;;;7388796;19;20010;-91
2022/10/01 04:16:29;;;;;;;3.17;0.73;;;16.50;87.20;;;;;;7386881;19;20006;-89
2022/10/01 04:19:02;;;;;;;1.38;0.90;;;16.40;87.40;;;;;;7378661;19;20025;-89
2022/10/01 04:21:32;;;;;;;1.80;0.80;;;16.50;87.40;;;;;;7403155;19;20014;-90
2022/10/01 04:24:10;;;;;;;0.80;0.80;;;16.50;87.20;;;;;;7381063;19;20054;-89
2022/10/01 04:26:46;;;;;;;4.80;0.90;;;16.50;87.30;;;;;;7380834;19;20014;-89
2022/10/01 04:29:45;;;;;;;2.80;0.88;;;16.40;87.70;;;;;;7384368;19;20026;-91
2022/10/01 04:32:36;;;;;;;0.75;0.75;;;16.40;88.00;;;;;;7389364;19;20014;-91
2022/10/01 04:38:19;;;;;;;1.33;0.90;;;16.50;88.40;;;;;;7333354;19;20046;-89
2022/10/01 04:41:15;;;;;;;2.20;0.70;;;16.60;88.00;;;;;;7405238;19;20023;-90
2022/10/01 04:43:54;;;;;;;1.92;1.00;;;16.40;89.00;;;;;;7385226;19;20010;-90
2022/10/01 04:46:38;;;;;;;2.28;0.93;;;16.20;90.00;;;;;;7379934;19;20006;-90
2022/10/01 04:49:26;;;;;;;0.98;0.73;;;16.40;89.40;;;;;;7388400;19;20051;-90
2022/10/01 04:52:15;;;;;;;0.60;0.60;;;16.40;89.70;;;;;;7413775;19;20014;-91
2022/10/01 05:17:44;;;;;;;0.60;0.60;;;16.90;88.40;;;;;;7403694;19;20010;-88
2022/10/01 05:26:31;;;;;;;1.55;0.60;;;17.10;88.20;;;;;;7384516;19;20010;-89
2022/10/01 05:29:15;;;;;;;1.95;0.80;;;17.00;88.30;;;;;;7385675;19;20126;-88
2022/10/01 05:31:49;;;;;;;0.60;0.60;;;17.00;88.50;;;;;;7385286;19;20015;-89
2022/10/01 05:34:42;;;;;;;1.38;0.50;;;17.00;88.40;;;;;;7344509;19;20165;-89
2022/10/01 05:37:26;;;;;;;0.88;0.40;;;16.90;88.30;;;;;;7386458;19;20047;-89
2022/10/01 05:47:54;;;;;;;2.17;0.50;;;16.80;89.40;;;;;;7382172;19;20022;-90
2022/10/01 05:54:22;;;;;;;0.57;0.57;;;16.90;89.10;;;;;;7350522;19;20015;-90
2022/10/01 05:57:50;;;;;;;5.45;0.70;;;17.00;89.10;;;;;;7389489;19;20010;-90
2022/10/01 06:00:50;;;;;;;2.53;0.70;;;17.00;88.50;;;;;;7396617;19;20028;-90
2022/10/01 06:03:59;;;;;;;3.70;0.60;;;17.00;88.90;;;;;;7351964;19;20014;-89
2022/10/01 06:09:53;;;;;;;1.75;0.70;;;17.10;88.90;;;;;;7387045;19;20015;-90
2022/10/01 06:15:54;;;;;;;3.90;0.90;;;17.10;88.50;;;;;;7354460;19;20019;-90
2022/10/01 06:18:36;;;;;;;2.67;0.98;;;17.20;88.50;;;;;;7418195;19;20011;-91
2022/10/01 06:21:38;;;;;;;3.45;1.00;;;17.20;88.30;;;;;;7301335;19;20010;-91
2022/10/01 06:24:16;;;;;;;2.33;0.70;;;17.20;88.50;;;;;;7418354;19;20014;-93
2022/10/01 06:27:03;;;;;;;6.43;1.02;;;17.30;88.10;;;;;;7401974;19;20020;-91
2022/10/01 06:29:49;;;;;;;7.40;0.90;;;17.20;88.00;;;;;;7404891;19;20022;-91
2022/10/01 06:32:36;;;;;;;8.52;1.00;;;17.20;88.30;;;;;;7404885;19;20127;-92
2022/10/01 06:35:10;;;;;;;5.82;1.25;;;17.10;88.50;;;;;;7399934;19;20011;-92
2022/10/01 06:40:47;;;;;;;7.10;1.10;;;17.20;88.50;;;;;;7400717;19;20011;-92
2022/10/01 06:43:41;;;;;;;4.75;1.23;;;17.30;88.30;;;;;;7395727;19;20021;-90
2022/10/01 06:46:23;;;;;;;9.82;1.35;;;17.30;88.20;;;;;;7384564;19;20050;-90
2022/10/01 06:48:56;;;;;;;7.32;1.27;;;17.30;88.10;;;;;;7406408;19;20046;-90
2022/10/01 06:54:16;;;;;;;5.63;1.13;;;17.40;88.10;;;;;;7400100;19;20014;-91
2022/10/01 06:57:06;;;;;;;6.85;1.20;;;17.40;88.00;;;;;;7397095;19;20031;-91
2022/10/01 06:59:38;;;;;;;6.30;1.20;;;17.40;87.80;;;;;;7405802;19;20017;-91
2022/10/01 07:02:07;;;;;;;4.93;1.10;;;17.50;87.80;;;;;;7409989;19;20021;-89
2022/10/01 07:04:43;;;;;;;7.35;1.23;;;17.40;87.70;;;;;;7409283;19;20015;-90
2022/10/01 07:07:19;;;;;;;12.20;1.25;;;17.30;87.80;;;;;;7407703;19;20010;-90
2022/10/01 07:09:58;;;;;;;4.57;1.15;;;17.30;87.80;;;;;;7420042;19;20014;-92
2022/10/01 07:12:39;;;;;;;3.03;1.10;;;17.40;88.70;;;;;;7399006;19;20436;-91
2022/10/01 07:15:12;;;;;;;7.15;1.27;;;17.40;87.70;;;;;;7394466;19;20762;-91
2022/10/01 07:20:46;;;;;;;8.65;1.40;;;17.40;87.60;;;;;;7392801;19;20022;-91
2022/10/01 07:23:23;;;;;;;12.45;1.23;;;17.50;87.50;;;;;;7391752;19;20102;-91
2022/10/01 07:25:59;;;;;;;6.45;1.00;;;17.50;87.70;;;;;;7380956;19;20030;-90
2022/10/01 07:28:55;;;;;;;9.23;1.50;;;17.50;87.60;;;;;;7386903;19;20055;-89
2022/10/01 07:31:25;;;;;;;11.07;1.50;;;17.40;87.70;;;;;;7388594;19;20022;-89
2022/10/01 07:33:59;;;;;;;12.13;1.50;;;17.50;87.10;;;;;;7415819;19;20021;-89
2022/10/01 07:36:41;;;;;;;13.63;1.48;;;17.50;86.80;;;;;;7386828;19;20063;-88
2022/10/01 07:39:17;;;;;;;8.50;1.60;;;17.40;85.30;;;;;;7385990;19;20031;-89
2022/10/01 07:41:53;;;;;;;14.50;2.10;;;17.40;85.90;;;;;;7383213;19;20023;-89
2022/10/01 07:44:23;;;;;;;14.43;1.75;;;17.40;85.20;;;;;;7382346;19;20460;-89
2022/10/01 07:46:56;;;;;;;18.08;1.83;;;17.40;84.60;;;;;;7383094;19;20022;-89
2022/10/01 07:49:28;;;;;;;17.65;1.88;;;17.50;84.70;;;;;;7382355;19;20014;-89
2022/10/01 07:51:58;;;;;;;9.30;1.60;;;17.50;84.70;;;;;;7395974;19;20046;-89
2022/10/01 07:54:34;;;;;;;18.83;2.22;;;17.50;84.60;;;;;;7403029;19;20014;-90
2022/10/01 07:57:16;;;;;;;11.25;1.88;;;17.60;84.90;;;;;;7379463;19;20023;-90
2022/10/01 07:59:51;;;;;;;14.38;2.20;;;17.50;84.10;;;;;;7381368;19;20019;-89
2022/10/01 08:02:22;;;;;;;19.83;2.42;;;17.60;84.50;;;;;;7387938;19;20007;-89
2022/10/01 08:18:24;;;;;;;10.63;1.65;;;17.80;84.40;;;;;;7415213;19;20010;-90
2022/10/01 08:20:58;;;;;;;12.85;1.63;;;17.90;84.40;;;;;;7399179;19;20010;-90
2022/10/01 08:49:58;;;;;;;17.08;2.00;;;18.10;83.70;;;;;;7370763;19;20003;-87
2022/10/01 18:52:19;;;;;;;14.63;2.58;;;19.50;62.00;;;;;;7044561;19;3053908;-88
2022/10/01 18:55:20;;;;;;;13.18;2.58;;;19.50;62.20;;;;;;7383082;19;20029;-84
2022/10/01 19:03:58;;;;;;;25.90;8.68;;;19.50;63.50;;;;;;7386968;19;20045;-84
2022/10/01 19:06:43;;;;;;;18.50;2.67;;;19.50;63.50;;;;;;7380451;19;20014;-85
2022/10/01 19:12:48;;;;;;;15.75;2.65;;;19.40;64.30;;;;;;7378039;19;20048;-86
2022/10/01 19:15:27;;;;;;;18.73;2.88;;;19.30;64.50;;;;;;7379310;19;20014;-86
2022/10/01 19:18:21;;;;;;;21.60;2.55;;;19.30;65.00;;;;;;7402116;19;20090;-85
2022/10/01 19:21:00;;;;;;;20.80;2.92;;;19.30;65.00;;;;;;7382826;19;20016;-86
2022/10/01 19:24:11;;;;;;;23.17;3.47;;;19.20;64.60;;;;;;7387737;19;20014;-84
2022/10/01 19:26:46;;;;;;;15.00;3.15;;;19.20;65.90;;;;;;7380160;19;20027;-84
2022/10/01 19:29:30;;;;;;;22.40;3.70;;;19.20;65.60;;;;;;7378490;19;20046;-85
2022/10/01 19:32:03;;;;;;;23.42;4.20;;;19.20;65.90;;;;;;7381177;19;20015;-85
2022/10/01 19:34:35;;;;;;;17.23;3.22;;;19.20;65.90;;;;;;7380536;19;20011;-86
2022/10/01 19:37:09;;;;;;;17.40;3.38;;;19.10;65.90;;;;;;7379106;19;20018;-86
2022/10/01 19:39:41;;;;;;;17.60;3.25;;;19.10;65.50;;;;;;7377195;19;20027;-86
2022/10/01 19:42:19;;;;;;;15.38;3.85;;;19.10;66.50;;;;;;7375876;19;20058;-86
2022/10/01 19:45:00;;;;;;;22.95;3.85;;;19.00;66.50;;;;;;7396000;19;20007;-86
2022/10/01 19:47:38;;;;;;;19.00;3.10;;;18.90;66.80;;;;;;7376433;19;20015;-87
2022/10/01 19:50:23;;;;;;;11.65;3.10;;;18.90;66.90;;;;;;7375928;19;20021;-86
2022/10/01 19:52:53;;;;;;;13.05;3.13;;;18.80;67.30;;;;;;7377526;19;20019;-86
2022/10/01 19:55:26;;;;;;;11.55;2.80;;;18.80;67.30;;;;;;7378706;19;20010;-86
2022/10/01 19:57:55;;;;;;;13.45;2.45;;;18.80;67.40;;;;;;7379904;19;20505;-86
2022/10/01 20:00:27;;;;;;;14.40;2.85;;;18.80;67.50;;;;;;7380438;19;20015;-85
2022/10/01 20:03:02;;;;;;;;;;;18.80;68.20;;;;;;7399390;19;20014;-85
2022/10/01 20:05:40;;;;;;;14.68;2.75;;;18.80;67.50;;;;;;7375061;19;19927;-85
2022/10/01 20:08:18;;;;;;;17.60;3.00;;;18.80;67.40;;;;;;7379295;19;20011;-86
2022/10/01 20:10:55;;;;;;;11.27;2.50;;;18.70;67.30;;;;;;7379994;19;20014;-86
2022/10/01 20:13:40;;;;;;;15.93;2.85;;;18.80;67.40;;;;;;7374179;19;20027;-85
2022/10/01 20:16:25;;;;;;;16.70;3.22;;;18.80;67.50;;;;;;7371116;19;20535;-84
2022/10/01 20:19:01;;;;;;;19.85;3.50;;;18.80;67.60;;;;;;7372410;19;20472;-85
2022/10/01 20:21:42;;;;;;;16.55;3.42;;;18.80;67.50;;;;;;7371504;19;20030;-86
2022/10/01 20:24:29;;;;;;;19.70;3.83;;;18.80;67.50;;;;;;7376702;19;20041;-84
2022/10/01 20:27:10;;;;;;;19.83;5.32;;;18.80;67.50;;;;;;7395692;19;20034;-84
2022/10/01 20:29:48;;;;;;;16.63;6.85;;;18.70;67.40;;;;;;7375172;19;20014;-85
2022/10/01 20:32:24;;;;;;;19.55;6.07;;;18.70;67.50;;;;;;7376064;19;20015;-86
2022/10/01 20:35:07;;;;;;;21.20;5.22;;;18.70;67.80;;;;;;7373871;19;20076;-85
2022/10/01 20:37:55;;;;;;;26.42;4.85;;;18.70;68.00;;;;;;7373643;19;20824;-85
2022/10/01 20:40:28;;;;;;;14.93;4.35;;;18.60;68.10;;;;;;7375399;19;20011;-85
2022/10/01 20:43:03;;;;;;;20.08;4.28;;;18.70;67.70;;;;;;7375041;19;20014;-85
2022/10/01 20:45:35;;;;;;;14.57;4.55;;;18.60;67.80;;;;;;7370612;19;20355;-85
2022/10/01 20:48:13;;;;;;;18.13;4.13;;;18.50;67.80;;;;;;7368905;19;20022;-85
2022/10/01 20:50:45;;;;;;;19.83;4.07;;;18.50;68.00;;;;;;7392678;19;20010;-85
2022/10/01 20:53:21;;;;;;;18.05;3.83;;;18.50;68.20;;;;;;7379514;19;20018;-85
2022/10/01 20:55:53;;;;;;;21.08;3.42;;;18.40;68.40;;;;;;7379638;19;20050;-85
2022/10/01 20:58:27;;;;;;;21.55;5.20;;;18.40;68.50;;;;;;7381577;19;20384;-86
2022/10/01 21:01:01;;;;;;;18.48;2.95;;;18.40;68.50;;;;;;7382599;19;20011;-85
2022/10/01 21:03:37;;;;;;;15.77;3.17;;;18.30;68.40;;;;;;7383055;19;20015;-85
2022/10/01 21:06:11;;;;;;;16.73;2.90;;;18.30;68.50;;;;;;7378550;19;20047;-85
2022/10/01 21:08:49;;;;;;;16.48;3.10;;;18.30;68.70;;;;;;7411879;19;20087;-85
2022/10/01 21:11:29;;;;;;;12.93;3.58;;;18.20;68.80;;;;;;7391657;19;20031;-86
2022/10/01 21:14:05;;;;;;;15.15;2.72;;;18.30;68.80;;;;;;7392324;19;20011;-84
2022/10/01 21:17:02;;;;;;;21.10;3.45;;;18.30;68.90;;;;;;7392872;19;20010;-85
2022/10/01 21:19:46;;;;;;;20.15;6.70;;;18.30;69.00;;;;;;7388797;19;20018;-86
2022/10/01 21:22:27;;;;;;;19.40;6.60;;;18.30;68.80;;;;;;7386108;19;20011;-85
2022/10/01 21:25:11;;;;;;;32.03;9.70;;;18.30;68.80;;;;;;7388103;19;20026;-83
2022/10/01 21:28:17;;;;;;;27.17;7.60;;;18.30;68.80;;;;;;7386909;19;20009;-84
2022/10/01 21:31:01;;;;;;;24.60;6.95;;;18.30;69.10;;;;;;7386447;19;20010;-84
2022/10/01 21:33:35;;;;;;;27.92;7.90;;;18.30;69.10;;;;;;7383503;19;20057;-85
2022/10/01 21:36:14;;;;;;;33.55;8.40;;;18.40;69.20;;;;;;7385524;19;20011;-84
2022/10/01 21:38:50;;;;;;;26.58;9.55;;;18.40;69.20;;;;;;7403115;19;20019;-85
2022/10/01 21:41:33;;;;;;;31.25;9.02;;;18.50;69.10;;;;;;7381774;19;20394;-84
2022/10/01 21:44:32;;;;;;;29.23;8.82;;;18.50;68.90;;;;;;7380214;19;20038;-84
2022/10/01 21:47:08;;;;;;;22.38;8.20;;;18.50;68.90;;;;;;7378915;19;20011;-83
2022/10/01 21:49:49;;;;;;;23.05;7.80;;;18.50;68.60;;;;;;7377694;19;20021;-83
2022/10/01 21:52:32;;;;;;;25.23;8.75;;;18.50;68.70;;;;;;7377093;19;20028;-84
2022/10/01 21:55:31;;;;;;;28.67;8.52;;;18.50;68.60;;;;;;7383033;19;20006;-84
2022/10/01 21:58:23;;;;;;;23.15;7.95;;;18.50;68.80;;;;;;7380324;19;20038;-84
2022/10/01 22:01:00;;;;;;;31.65;8.75;;;18.40;68.90;;;;;;7378595;19;20058;-84
2022/10/01 22:03:36;;;;;;;20.05;7.63;;;18.50;69.00;;;;;;7371891;19;20098;-84
2022/10/01 22:06:16;;;;;;;19.08;5.30;;;18.50;69.10;;;;;;7373654;19;20023;-84
2022/10/01 22:09:03;;;;;;;24.42;6.70;;;18.50;68.60;;;;;;7393748;19;20015;-84
2022/10/01 22:11:38;;;;;;;15.48;4.70;;;18.40;68.60;;;;;;7374314;19;20030;-84
2022/10/01 22:14:18;;;;;;;10.45;3.70;;;18.50;68.60;;;;;;7375280;19;20098;-85
2022/10/01 22:16:53;;;;;;;17.90;3.55;;;18.50;68.50;;;;;;7379026;19;20042;-83
2022/10/01 22:19:33;;;;;;;17.27;2.60;;;18.60;68.20;;;;;;7376973;19;20018;-85
2022/10/01 22:22:09;;;;;;;23.92;4.80;;;18.60;68.00;;;;;;7374533;19;20022;-84
2022/10/01 22:24:45;;;;;;;12.52;3.05;;;18.60;68.10;;;;;;7376953;19;20023;-85
2022/10/01 22:27:19;;;;;;;17.52;4.32;;;18.70;67.90;;;;;;7379105;19;20010;-84
2022/10/01 22:29:53;;;;;;;21.15;3.97;;;18.80;67.90;;;;;;7397435;19;20010;-85
2022/10/01 22:32:26;;;;;;;17.38;5.53;;;18.80;67.90;;;;;;7376603;19;20036;-85
2022/10/01 22:35:02;;;;;;;20.67;5.50;;;18.90;68.10;;;;;;7377597;19;20465;-85
2022/10/01 22:37:37;;;;;;;22.25;5.80;;;18.90;68.40;;;;;;7376635;19;20010;-85
2022/10/01 22:40:16;;;;;;;20.73;5.45;;;18.90;68.40;;;;;;7378062;19;20007;-84
2022/10/01 22:42:51;;;;;;;19.75;4.03;;;18.90;68.40;;;;;;7379861;19;20021;-85
2022/10/01 22:45:23;;;;;;;15.65;4.65;;;18.90;68.40;;;;;;7381268;19;20468;-85
2022/10/01 22:48:05;;;;;;;21.88;4.78;;;18.90;68.60;;;;;;7401751;19;20027;-84
2022/10/01 22:50:44;;;;;;;24.00;4.55;;;18.90;68.90;;;;;;7376859;19;20017;-84
2022/10/01 22:53:41;;;;;;;16.42;4.07;;;18.90;69.10;;;;;;7375956;19;20015;-84
2022/10/01 22:56:19;;;;;;;18.48;4.10;;;18.90;69.40;;;;;;7374977;19;20022;-84
2022/10/01 22:59:05;;;;;;;18.40;4.45;;;19.00;69.40;;;;;;7375080;19;20423;-85
2022/10/01 23:01:44;;;;;;;21.52;4.68;;;19.00;69.50;;;;;;7375305;19;20067;-85
2022/10/01 23:04:37;;;;;;;14.43;4.13;;;19.00;69.60;;;;;;7375281;19;20191;-90
2022/10/01 23:07:14;;;;;;;13.70;3.80;;;18.90;69.70;;;;;;7378188;19;20007;-87
2022/10/01 23:09:55;;;;;;;16.58;4.38;;;19.00;69.90;;;;;;7376084;19;20034;-87
2022/10/01 23:12:36;;;;;;;14.15;3.70;;;19.00;70.80;;;;;;7373871;19;20023;-88
2022/10/01 23:15:23;;;;;;;26.58;4.10;;;19.00;70.00;;;;;;7370362;19;20023;-87
2022/10/01 23:18:03;;;;;;;12.68;3.80;;;19.00;70.20;;;;;;7397706;19;20010;-87
2022/10/01 23:20:36;;;;;;;19.05;4.10;;;19.00;70.30;;;;;;7378764;19;20459;-87
2022/10/01 23:23:20;;;;;;;19.40;4.28;;;19.00;70.30;;;;;;7387697;19;20019;-87
2022/10/01 23:26:04;;;;;;;12.55;3.45;;;19.00;70.50;;;;;;7382747;19;20054;-87
2022/10/01 23:28:48;;;;;;;14.77;4.18;;;19.00;70.50;;;;;;7378748;19;20604;-88
2022/10/01 23:31:27;;;;;;;14.38;3.50;;;19.00;70.50;;;;;;7375654;19;20262;-87
2022/10/01 23:34:11;;;;;;;15.40;3.42;;;19.00;70.30;;;;;;7374975;19;20014;-88
2022/10/01 23:36:48;;;;;;;16.75;3.75;;;19.00;70.60;;;;;;7372218;19;20018;-87
2022/10/01 23:39:38;;;;;;;14.95;4.00;;;19.00;70.60;;;;;;7370212;19;20011;-88
2022/10/01 23:42:23;;;;;;;21.40;4.05;;;18.90;70.70;;;;;;7371738;19;20006;-86
2022/10/01 23:45:04;;;;;;;14.73;3.72;;;18.90;70.80;;;;;;7390690;19;20489;-86
2022/10/01 23:47:39;;;;;;;19.80;3.55;;;18.90;70.90;;;;;;7373191;19;20328;-86
2022/10/01 23:50:19;;;;;;;20.52;3.85;;;19.00;71.00;;;;;;7373059;19;20048;-87
2022/10/01 23:52:56;;;;;;;14.52;3.88;;;18.90;71.10;;;;;;7373012;19;20784;-86
2022/10/01 23:58:19;;;;;;;19.38;3.78;;;18.90;71.30;;;;;;7376346;19;20021;-87
